createdAt,value
2023-02-11T00:01:41.280Z,6.73
2023-02-11T00:04:08.975Z,6.71
2023-02-11T00:06:36.686Z,6.71
2023-02-11T00:09:04.826Z,6.71
2023-02-11T00:11:32.579Z,6.72
2023-02-11T00:14:00.270Z,6.73
2023-02-11T00:16:28.079Z,6.77
2023-02-11T00:18:55.745Z,6.78
2023-02-11T00:21:24.069Z,6.77
2023-02-11T00:23:51.702Z,6.76
2023-02-11T00:26:19.352Z,6.72
2023-02-11T00:28:47.030Z,6.68
2023-02-11T00:31:14.766Z,6.64
2023-02-11T00:33:42.813Z,6.60
2023-02-11T00:36:10.720Z,6.61
2023-02-11T00:38:38.342Z,6.61
2023-02-11T00:41:06.087Z,6.62
2023-02-11T00:43:34.111Z,6.62
2023-02-11T00:46:02.210Z,6.62
2023-02-11T00:48:29.860Z,6.63
2023-02-11T00:50:57.529Z,6.65
2023-02-11T00:53:25.278Z,6.67
2023-02-11T00:55:52.888Z,6.68
2023-02-11T00:58:20.719Z,6.69
2023-02-11T01:00:48.395Z,6.68
2023-02-11T01:03:16.016Z,6.70
2023-02-11T01:05:45.017Z,6.70
2023-02-11T01:08:12.615Z,6.70
2023-02-11T01:10:40.604Z,6.71
2023-02-11T01:13:08.255Z,6.71
2023-02-11T01:15:36.295Z,6.72
2023-02-11T01:18:04.143Z,6.72
2023-02-11T01:20:31.949Z,6.74
2023-02-11T01:22:59.931Z,6.75
2023-02-11T01:25:27.688Z,6.75
2023-02-11T01:27:55.393Z,6.75
2023-02-11T01:30:23.026Z,6.76
2023-02-11T01:32:50.707Z,6.75
2023-02-11T01:35:18.697Z,6.75
2023-02-11T01:37:46.322Z,6.76
2023-02-11T01:40:13.921Z,6.76
2023-02-11T01:42:41.705Z,6.77
2023-02-11T01:45:09.313Z,6.77
2023-02-11T01:47:37.095Z,6.78
2023-02-11T01:50:05.065Z,6.79
2023-02-11T01:52:32.658Z,6.79
2023-02-11T01:55:17.726Z,6.80
2023-02-11T01:57:45.951Z,6.80
2023-02-11T02:00:13.557Z,6.74
2023-02-11T02:02:41.195Z,6.67
2023-02-11T02:05:08.808Z,6.58
2023-02-11T02:07:36.390Z,6.49
2023-02-11T02:10:04.592Z,6.43
2023-02-11T02:12:32.174Z,6.40
2023-02-11T02:14:59.812Z,6.34
2023-02-11T02:17:27.477Z,6.29
2023-02-11T02:19:55.060Z,6.26
2023-02-11T02:22:22.882Z,6.23
2023-02-11T02:24:50.518Z,6.19
2023-02-11T02:27:18.118Z,6.18
2023-02-11T02:29:45.679Z,6.17
2023-02-11T02:32:13.635Z,6.20
2023-02-11T02:34:41.549Z,6.23
2023-02-11T02:37:09.136Z,6.26
2023-02-11T02:39:36.762Z,6.29
2023-02-11T02:42:04.372Z,6.31
2023-02-11T02:44:31.988Z,6.36
2023-02-11T02:47:00.008Z,6.39
2023-02-11T02:49:27.652Z,6.42
2023-02-11T02:51:55.287Z,6.45
2023-02-11T02:54:23.331Z,6.47
2023-02-11T02:56:50.924Z,6.49
2023-02-11T02:59:18.889Z,6.51
2023-02-11T03:01:47.222Z,6.52
2023-02-11T03:04:14.845Z,6.52
2023-02-11T03:06:42.425Z,6.53
2023-02-11T03:09:11.528Z,6.53
2023-02-11T03:11:39.829Z,6.54
2023-02-11T03:14:07.465Z,6.55
2023-02-11T03:16:39.396Z,6.56
2023-02-11T03:19:07.040Z,6.56
2023-02-11T03:21:34.607Z,6.56
2023-02-11T03:24:02.583Z,6.57
2023-02-11T03:26:30.181Z,6.58
2023-02-11T03:28:57.801Z,6.58
2023-02-11T03:31:25.513Z,6.58
2023-02-11T03:33:53.195Z,6.59
2023-02-11T03:36:20.784Z,6.59
2023-02-11T03:38:48.838Z,6.59
2023-02-11T03:41:16.424Z,6.58
2023-02-11T03:43:44.006Z,6.58
2023-02-11T03:46:11.654Z,6.58
2023-02-11T03:48:39.837Z,6.58
2023-02-11T03:51:07.421Z,6.57
2023-02-11T03:53:35.034Z,6.57
2023-02-11T03:56:02.841Z,6.56
2023-02-11T03:58:30.416Z,6.56
2023-02-11T04:01:02.343Z,6.55
2023-02-11T04:03:30.004Z,6.54
2023-02-11T04:05:57.651Z,6.54
2023-02-11T04:08:25.258Z,6.54
2023-02-11T04:10:52.823Z,6.53
2023-02-11T04:13:21.044Z,6.54
2023-02-11T04:15:49.188Z,6.51
2023-02-11T04:18:16.868Z,6.49
2023-02-11T04:20:44.567Z,6.45
2023-02-11T04:23:12.556Z,6.39
2023-02-11T04:25:40.328Z,6.32
2023-02-11T04:28:08.030Z,6.25
2023-02-11T04:30:35.663Z,6.21
2023-02-11T04:33:03.227Z,6.18
2023-02-11T04:35:30.807Z,6.15
2023-02-11T04:37:58.795Z,6.14
2023-02-11T04:40:26.368Z,6.13
2023-02-11T04:42:53.976Z,6.12
2023-02-11T04:45:22.012Z,6.11
2023-02-11T04:47:49.608Z,6.08
2023-02-11T04:50:17.736Z,6.07
2023-02-11T04:52:45.356Z,6.05
2023-02-11T04:55:12.930Z,6.03
2023-02-11T04:57:40.522Z,5.98
2023-02-11T05:00:08.410Z,5.96
2023-02-11T05:02:36.034Z,5.93
2023-02-11T05:08:13.260Z,5.86
2023-02-11T05:10:40.872Z,5.83
2023-02-11T05:13:09.122Z,5.81
2023-02-11T05:15:36.790Z,5.80
2023-02-11T05:18:04.369Z,5.79
2023-02-11T05:20:31.971Z,5.76
2023-02-11T05:22:59.628Z,5.76
2023-02-11T05:25:27.778Z,5.76
2023-02-11T05:27:55.487Z,5.75
2023-02-11T05:30:23.534Z,5.75
2023-02-11T05:32:51.236Z,5.75
2023-02-11T05:35:18.805Z,5.76
2023-02-11T05:37:47.008Z,5.76
2023-02-11T05:40:14.619Z,5.76
2023-02-11T05:42:42.223Z,5.75
2023-02-11T05:45:09.877Z,5.75
2023-02-11T05:47:37.479Z,5.76
2023-02-11T05:50:05.650Z,5.76
2023-02-11T05:52:33.664Z,5.78
2023-02-11T05:55:01.449Z,5.77
2023-02-11T05:57:29.052Z,5.76
2023-02-11T05:59:56.741Z,5.76
2023-02-11T06:02:24.930Z,5.77
2023-02-11T06:04:52.500Z,5.78
2023-02-11T06:07:20.097Z,5.79
2023-02-11T06:09:47.659Z,5.80
2023-02-11T06:12:15.317Z,5.83
2023-02-11T06:14:43.955Z,5.84
2023-02-11T06:17:13.366Z,5.86
2023-02-11T06:19:42.271Z,5.87
2023-02-11T06:22:09.907Z,5.88
2023-02-11T06:25:00.029Z,5.88
2023-02-11T06:27:26.153Z,5.90
2023-02-11T06:29:53.718Z,5.91
2023-02-11T06:32:39.822Z,5.91
2023-02-11T06:35:11.746Z,5.92
2023-02-11T06:37:40.352Z,5.93
2023-02-11T06:40:07.984Z,5.92
2023-02-11T06:42:36.358Z,5.94
2023-02-11T06:45:06.218Z,5.95
2023-02-11T06:47:33.904Z,5.96
2023-02-11T06:50:01.793Z,5.96
2023-02-11T06:52:29.392Z,5.98
2023-02-11T06:54:57.046Z,5.99
2023-02-11T06:57:24.763Z,5.99
2023-02-11T06:59:53.675Z,6.01
2023-02-11T07:02:21.886Z,6.02
2023-02-11T07:04:49.519Z,6.02
2023-02-11T07:07:17.122Z,6.04
2023-02-11T07:09:44.792Z,6.05
2023-02-11T07:12:12.504Z,6.06
2023-02-11T07:14:40.462Z,6.08
2023-02-11T07:17:08.412Z,6.09
2023-02-11T07:19:36.081Z,6.10
2023-02-11T07:22:03.718Z,6.12
2023-02-11T07:24:31.401Z,6.13
2023-02-11T07:26:59.231Z,6.14
2023-02-11T07:29:26.802Z,6.15
2023-02-11T07:31:54.490Z,6.15
2023-02-11T07:34:22.278Z,6.17
2023-02-11T07:36:50.249Z,6.19
2023-02-11T07:39:20.508Z,6.19
2023-02-11T07:41:49.483Z,6.21
2023-02-11T07:44:17.168Z,6.22
2023-02-11T07:46:45.738Z,6.23
2023-02-11T07:49:13.470Z,6.24
2023-02-11T07:51:41.726Z,6.25
2023-02-11T07:54:09.398Z,6.26
2023-02-11T07:56:37.199Z,6.28
2023-02-11T07:59:04.805Z,6.29
2023-02-11T08:01:32.852Z,6.30
2023-02-11T08:04:01.075Z,6.32
2023-02-11T08:06:28.716Z,6.32
2023-02-11T08:08:56.401Z,6.33
2023-02-11T08:11:24.125Z,6.36
2023-02-11T08:13:51.977Z,6.37
2023-02-11T08:16:20.314Z,6.39
2023-02-11T08:18:48.115Z,6.39
2023-02-11T08:21:15.851Z,6.42
2023-02-11T08:23:43.936Z,6.43
2023-02-11T08:26:11.845Z,6.43
2023-02-11T08:28:40.776Z,6.46
2023-02-11T08:31:08.554Z,6.46
2023-02-11T08:33:36.352Z,6.48
2023-02-11T08:36:04.334Z,6.49
2023-02-11T08:38:32.112Z,6.51
2023-02-11T08:41:00.042Z,6.54
2023-02-11T08:43:27.779Z,6.55
2023-02-11T08:45:55.977Z,6.55
2023-02-11T08:48:23.828Z,6.57
2023-02-11T08:50:51.455Z,6.58
2023-02-11T08:53:19.681Z,6.59
2023-02-11T08:55:47.422Z,6.61
2023-02-11T08:58:16.487Z,6.62
2023-02-11T09:00:45.824Z,6.62
2023-02-11T09:03:13.953Z,6.62
2023-02-11T09:05:42.513Z,6.63
2023-02-11T09:08:10.730Z,6.66
2023-02-11T09:10:38.450Z,6.68
2023-02-11T09:13:06.190Z,6.70
2023-02-11T09:15:34.002Z,6.71
2023-02-11T09:18:03.195Z,6.73
2023-02-11T09:20:31.036Z,6.76
2023-02-11T09:22:58.695Z,6.78
2023-02-11T09:25:26.431Z,6.80
2023-02-11T09:27:54.211Z,6.82
2023-02-11T09:30:23.707Z,6.85
2023-02-11T09:32:51.655Z,6.88
2023-02-11T09:35:19.555Z,6.91
2023-02-11T09:37:47.363Z,6.93
2023-02-11T09:40:15.085Z,6.97
2023-02-11T09:42:43.539Z,7.00
2023-02-11T09:45:11.387Z,7.02
2023-02-11T09:47:39.178Z,7.06
2023-02-11T09:50:06.926Z,7.11
2023-02-11T09:52:35.155Z,7.18
2023-02-11T09:55:04.045Z,7.23
2023-02-11T09:57:31.756Z,7.27
2023-02-11T09:59:59.448Z,7.28
2023-02-11T10:02:27.542Z,7.30
2023-02-11T10:04:55.460Z,7.30
2023-02-11T10:07:23.632Z,7.31
2023-02-11T10:09:51.607Z,7.34
2023-02-11T10:12:19.449Z,7.35
2023-02-11T10:14:47.747Z,7.34
2023-02-11T10:17:15.808Z,7.34
2023-02-11T10:19:44.594Z,7.37
2023-02-11T10:22:12.454Z,7.36
2023-02-11T10:24:40.383Z,7.38
2023-02-11T10:27:08.281Z,7.38
2023-02-11T10:29:36.204Z,7.37
2023-02-11T10:32:04.733Z,7.39
2023-02-11T10:34:32.617Z,7.39
2023-02-11T10:37:01.036Z,7.40
2023-02-11T10:39:29.268Z,7.41
2023-02-11T10:41:57.028Z,7.46
2023-02-11T10:44:25.955Z,7.50
2023-02-11T10:46:54.771Z,7.53
2023-02-11T10:49:22.655Z,7.55
2023-02-11T10:51:50.457Z,7.56
2023-02-11T10:54:19.740Z,7.59
2023-02-11T10:56:48.109Z,7.58
2023-02-11T10:59:15.922Z,7.58
2023-02-11T11:01:44.012Z,7.60
2023-02-11T11:04:11.968Z,7.64
2023-02-11T11:06:39.797Z,7.64
2023-02-11T11:09:08.412Z,7.61
2023-02-11T11:11:36.219Z,7.62
2023-02-11T11:14:04.603Z,7.63
2023-02-11T11:16:32.578Z,7.64
2023-02-11T11:19:00.591Z,7.66
2023-02-11T11:21:30.130Z,7.69
2023-02-11T11:23:58.051Z,7.70
2023-02-11T11:26:25.897Z,7.72
2023-02-11T11:28:53.637Z,7.76
2023-02-11T11:31:21.553Z,7.79
2023-02-11T11:33:50.124Z,7.83
2023-02-11T11:36:18.039Z,7.84
2023-02-11T11:38:46.107Z,7.86
2023-02-11T11:41:13.876Z,7.86
2023-02-11T11:43:42.004Z,7.86
2023-02-11T11:46:10.540Z,7.90
2023-02-11T11:48:38.528Z,7.91
2023-02-11T11:51:06.447Z,7.90
2023-02-11T11:53:34.685Z,7.91
2023-02-11T11:56:02.479Z,7.89
2023-02-11T11:58:31.092Z,7.90
2023-02-11T12:00:59.173Z,7.90
2023-02-11T12:03:27.107Z,7.89
2023-02-11T12:05:55.247Z,7.89
2023-02-11T12:08:23.301Z,7.88
2023-02-11T12:10:52.370Z,7.87
2023-02-11T12:13:20.490Z,7.85
2023-02-11T12:15:48.548Z,7.81
2023-02-11T12:18:16.290Z,7.80
2023-02-11T12:20:44.295Z,7.78
2023-02-11T12:23:13.012Z,7.78
2023-02-11T12:25:40.932Z,7.77
2023-02-11T12:28:08.912Z,7.76
2023-02-11T12:30:36.868Z,7.72
2023-02-11T12:33:05.152Z,7.72
2023-02-11T12:35:33.522Z,7.70
2023-02-11T12:38:02.721Z,7.71
2023-02-11T12:40:30.689Z,7.71
2023-02-11T12:43:24.484Z,7.73
2023-02-11T12:45:53.589Z,7.78
2023-02-11T12:48:23.154Z,7.79
2023-02-11T12:50:51.203Z,7.79
2023-02-11T12:53:19.142Z,7.79
2023-02-11T12:55:46.944Z,7.77
2023-02-11T12:58:15.573Z,7.77
2023-02-11T13:00:43.424Z,7.76
2023-02-11T13:03:11.277Z,7.75
2023-02-11T13:05:39.192Z,7.75
2023-02-11T13:08:07.082Z,7.74
2023-02-11T13:10:36.984Z,7.74
2023-02-11T13:13:20.115Z,7.74
2023-02-11T13:15:47.914Z,7.77
2023-02-11T13:18:18.087Z,7.78
2023-02-11T13:20:47.329Z,7.80
2023-02-11T13:23:15.178Z,7.82
2023-02-11T13:25:42.971Z,7.83
2023-02-11T13:28:10.926Z,7.84
2023-02-11T13:30:41.193Z,7.87
2023-02-11T13:33:09.535Z,7.88
2023-02-11T13:35:37.517Z,7.90
2023-02-11T13:38:05.285Z,7.91
2023-02-11T13:40:33.418Z,7.93
2023-02-11T13:43:01.279Z,7.94
2023-02-11T13:45:29.787Z,7.95
2023-02-11T13:47:57.586Z,7.97
2023-02-11T13:50:25.593Z,8.00
2023-02-11T13:52:53.962Z,8.01
2023-02-11T13:55:21.787Z,8.03
2023-02-11T13:57:50.345Z,8.03
2023-02-11T14:00:18.233Z,8.03
2023-02-11T14:03:03.414Z,8.02
2023-02-11T14:05:48.445Z,8.04
2023-02-11T14:08:35.785Z,8.05
2023-02-11T14:11:08.699Z,8.05
2023-02-11T14:13:37.359Z,8.06
2023-02-11T14:16:05.314Z,8.07
2023-02-11T14:18:33.092Z,8.08
2023-02-11T14:21:03.461Z,8.11
2023-02-11T14:23:31.490Z,8.11
2023-02-11T14:25:59.607Z,8.12
2023-02-11T14:28:27.532Z,8.14
2023-02-11T14:30:55.862Z,8.14
2023-02-11T14:33:23.849Z,8.15
2023-02-11T14:35:53.154Z,8.15
2023-02-11T14:38:21.110Z,8.15
2023-02-11T14:40:49.288Z,8.15
2023-02-11T14:43:17.545Z,8.13
2023-02-11T14:45:46.218Z,8.12
2023-02-11T14:48:14.512Z,8.11
2023-02-11T14:50:42.618Z,8.11
2023-02-11T14:53:10.466Z,8.12
2023-02-11T14:55:38.438Z,8.13
2023-02-11T14:58:06.689Z,8.14
2023-02-11T15:00:34.877Z,8.16
2023-02-11T15:03:02.895Z,8.16
2023-02-11T15:05:31.051Z,8.18
2023-02-11T15:07:58.903Z,8.19
2023-02-11T15:10:27.078Z,8.23
2023-02-11T15:12:55.583Z,8.25
2023-02-11T15:15:23.425Z,8.29
2023-02-11T15:17:51.314Z,8.31
2023-02-11T15:20:19.705Z,8.33
2023-02-11T15:22:47.639Z,8.36
2023-02-11T15:25:17.085Z,8.37
2023-02-11T15:27:45.019Z,8.38
2023-02-11T15:30:13.101Z,8.37
2023-02-11T15:32:41.408Z,8.38
2023-02-11T15:35:12.677Z,8.38
2023-02-11T15:37:40.658Z,8.38
2023-02-11T15:40:08.512Z,8.38
2023-02-11T15:42:50.894Z,8.39
2023-02-11T15:45:21.472Z,8.37
2023-02-11T15:47:49.824Z,8.36
2023-02-11T15:50:17.667Z,8.33
2023-02-11T15:52:45.478Z,8.30
2023-02-11T15:55:13.457Z,8.28
2023-02-11T15:57:41.284Z,8.25
2023-02-11T16:00:09.692Z,8.23
2023-02-11T16:02:45.162Z,8.22
2023-02-11T16:05:13.119Z,8.20
2023-02-11T16:07:41.026Z,8.19
2023-02-11T16:10:09.723Z,8.18
2023-02-11T16:12:37.643Z,8.16
2023-02-11T16:15:05.864Z,8.15
2023-02-11T16:17:33.829Z,8.15
2023-02-11T16:20:01.942Z,8.15
2023-02-11T16:22:30.925Z,8.15
2023-02-11T16:24:58.857Z,8.14
2023-02-11T16:27:28.723Z,8.13
2023-02-11T16:29:56.677Z,8.14
2023-02-11T16:32:24.785Z,8.13
2023-02-11T16:34:53.257Z,8.11
2023-02-11T16:37:21.399Z,8.11
2023-02-11T16:39:49.485Z,8.10
2023-02-11T16:42:17.341Z,8.10
2023-02-11T16:44:45.731Z,8.11
2023-02-11T16:47:13.891Z,8.11
2023-02-11T16:49:42.188Z,8.11
2023-02-11T16:52:10.292Z,8.13
2023-02-11T16:54:38.141Z,8.13
2023-02-11T16:57:06.034Z,8.12
2023-02-11T16:59:34.364Z,8.13
2023-02-11T17:02:02.750Z,8.13
2023-02-11T17:04:30.805Z,8.13
2023-02-11T17:06:59.179Z,8.13
2023-02-11T17:09:30.137Z,8.15
2023-02-11T17:11:58.801Z,8.14
2023-02-11T17:14:26.900Z,8.15
2023-02-11T17:16:54.781Z,8.15
2023-02-11T17:19:22.622Z,8.15
2023-02-11T17:21:50.601Z,8.17
2023-02-11T17:24:18.884Z,8.18
2023-02-11T17:26:47.040Z,8.18
2023-02-11T17:29:14.906Z,8.18
2023-02-11T17:31:42.903Z,8.19
2023-02-11T17:34:10.995Z,8.20
2023-02-11T17:36:39.111Z,8.21
2023-02-11T17:39:08.401Z,8.20
2023-02-11T17:41:36.334Z,8.21
2023-02-11T17:44:04.246Z,8.23
2023-02-11T17:46:32.566Z,8.23
2023-02-11T17:49:01.061Z,8.23
2023-02-11T17:51:30.515Z,8.24
2023-02-11T17:53:58.384Z,8.25
2023-02-11T17:56:26.227Z,8.25
2023-02-11T17:58:54.185Z,8.25
2023-02-11T18:01:22.212Z,8.25
2023-02-11T18:03:50.354Z,8.26
2023-02-11T18:06:18.290Z,8.24
2023-02-11T18:08:46.270Z,8.25
2023-02-11T18:11:15.335Z,8.26
2023-02-11T18:13:44.185Z,8.25
2023-02-11T18:16:16.075Z,8.25
2023-02-11T18:18:43.982Z,8.26
2023-02-11T18:21:11.944Z,8.25
2023-02-11T18:23:40.050Z,8.25
2023-02-11T18:26:08.331Z,8.26
2023-02-11T18:28:37.001Z,8.26
2023-02-11T18:31:05.161Z,8.27
2023-02-11T18:33:33.099Z,8.27
2023-02-11T18:36:01.257Z,8.26
2023-02-11T18:38:29.790Z,8.26
2023-02-11T18:40:57.957Z,8.28
2023-02-11T18:43:25.928Z,8.26
2023-02-11T18:45:54.367Z,8.28
2023-02-11T18:48:22.512Z,8.28
2023-02-11T18:50:50.833Z,8.28
2023-02-11T18:53:19.019Z,8.28
2023-02-11T18:55:46.964Z,8.28
2023-02-11T18:58:15.618Z,8.27
2023-02-11T19:00:43.593Z,8.27
2023-02-11T19:03:12.033Z,8.28
2023-02-11T19:05:40.098Z,8.28
2023-02-11T19:08:08.375Z,8.27
2023-02-11T19:10:36.244Z,8.26
2023-02-11T19:13:04.019Z,8.26
2023-02-11T19:15:32.636Z,8.25
2023-02-11T19:18:00.717Z,8.26
2023-02-11T19:20:33.555Z,8.26
2023-02-11T19:23:01.535Z,8.25
2023-02-11T19:25:29.435Z,8.25
2023-02-11T19:27:57.887Z,8.24
2023-02-11T19:30:26.200Z,8.24
2023-02-11T19:32:57.289Z,8.25
2023-02-11T19:35:25.257Z,8.24
2023-02-11T19:37:53.014Z,8.25
2023-02-11T19:40:21.851Z,8.25
2023-02-11T19:42:50.011Z,8.25
2023-02-11T19:45:17.870Z,8.24
2023-02-11T19:47:45.716Z,8.23
2023-02-11T19:50:13.691Z,8.23
2023-02-11T19:52:42.371Z,8.24
2023-02-11T19:55:10.329Z,8.24
2023-02-11T19:57:38.441Z,8.24
2023-02-11T20:00:06.428Z,8.23
2023-02-11T20:02:34.844Z,8.23
2023-02-11T20:05:04.791Z,8.22
2023-02-11T20:07:32.730Z,8.23
2023-02-11T20:10:00.578Z,8.22
2023-02-11T20:12:28.580Z,8.21
2023-02-11T20:14:56.508Z,8.22
2023-02-11T20:17:24.698Z,8.22
2023-02-11T20:19:53.092Z,8.21
2023-02-11T20:22:21.161Z,8.22
2023-02-11T20:24:49.288Z,8.21
2023-02-11T20:27:19.744Z,8.22
2023-02-11T20:29:48.239Z,8.22
2023-02-11T20:32:16.500Z,8.20
2023-02-11T20:34:44.496Z,8.20
2023-02-11T20:37:12.552Z,8.21
2023-02-11T20:39:42.053Z,8.19
2023-02-11T20:42:10.391Z,8.20
2023-02-11T20:44:38.469Z,8.20
2023-02-11T20:47:06.819Z,8.20
2023-02-11T20:49:34.848Z,8.19
2023-02-11T20:52:02.782Z,8.20
2023-02-11T20:54:31.204Z,8.19
2023-02-11T20:57:00.326Z,8.20
2023-02-11T20:59:28.090Z,8.19
2023-02-11T21:01:56.853Z,8.20
2023-02-11T21:04:24.917Z,8.20
2023-02-11T21:06:53.639Z,8.19
2023-02-11T21:09:22.760Z,8.21
2023-02-11T21:11:51.612Z,8.21
2023-02-11T21:14:19.446Z,8.20
2023-02-11T21:16:47.451Z,8.20
2023-02-11T21:19:15.894Z,8.20
2023-02-11T21:21:44.348Z,8.20
2023-02-11T21:24:12.439Z,8.20
2023-02-11T21:26:40.469Z,8.19
2023-02-11T21:29:08.592Z,8.19
2023-02-11T21:31:37.639Z,8.19
2023-02-11T21:34:06.236Z,8.20
2023-02-11T21:36:34.113Z,8.19
2023-02-11T21:39:02.137Z,8.19
2023-02-11T21:41:30.119Z,8.18
2023-02-11T21:43:58.509Z,8.19
2023-02-11T21:46:26.766Z,8.19
2023-02-11T21:48:54.810Z,8.18
2023-02-11T21:51:22.721Z,8.17
2023-02-11T21:53:51.073Z,8.18
2023-02-11T21:56:19.676Z,8.16
2023-02-11T21:58:47.542Z,8.15
2023-02-11T22:01:15.429Z,8.16
2023-02-11T22:03:43.307Z,8.17
2023-02-11T22:06:11.195Z,8.16
2023-02-11T22:08:39.236Z,8.17
2023-02-11T22:11:07.350Z,8.18
2023-02-11T22:13:35.275Z,8.18
2023-02-11T22:16:03.569Z,8.19
2023-02-11T22:18:31.734Z,8.21
2023-02-11T22:21:00.145Z,8.21
2023-02-11T22:23:28.475Z,8.21
2023-02-11T22:25:56.554Z,8.22
2023-02-11T22:28:25.578Z,8.23
2023-02-11T22:30:53.322Z,8.24
2023-02-11T22:33:21.809Z,8.25
2023-02-11T22:35:49.896Z,8.25
2023-02-11T22:38:18.164Z,8.25
2023-02-11T22:40:45.958Z,8.26
2023-02-11T22:43:13.772Z,8.25
2023-02-11T22:45:41.942Z,8.26
2023-02-11T22:48:10.240Z,8.26
2023-02-11T22:50:37.910Z,8.26
2023-02-11T22:53:05.692Z,8.28
2023-02-11T22:55:33.460Z,8.27
2023-02-11T22:58:01.477Z,8.28
2023-02-11T23:00:31.271Z,8.26
2023-02-11T23:02:59.152Z,8.26
2023-02-11T23:05:26.881Z,8.26
2023-02-11T23:07:54.564Z,8.27
2023-02-11T23:10:22.665Z,8.27
2023-02-11T23:12:50.374Z,8.27
2023-02-11T23:15:18.110Z,8.27
2023-02-11T23:17:45.903Z,8.29
2023-02-11T23:20:13.616Z,8.28
2023-02-11T23:22:42.066Z,8.29
2023-02-11T23:25:10.326Z,8.30
2023-02-11T23:27:38.101Z,8.30
2023-02-11T23:30:05.998Z,8.30
2023-02-11T23:32:33.910Z,8.31
2023-02-11T23:35:01.959Z,8.30
2023-02-11T23:37:29.830Z,8.31
2023-02-11T23:39:57.535Z,8.29
2023-02-11T23:42:25.283Z,8.28
2023-02-11T23:44:53.265Z,8.29
2023-02-11T23:47:21.273Z,8.29
2023-02-11T23:49:48.906Z,8.28
2023-02-11T23:52:16.592Z,8.28
2023-02-11T23:54:45.746Z,8.27
2023-02-11T23:57:13.359Z,8.26
2023-02-11T23:59:43.104Z,8.25
